createdAt,value
2023-02-09T00:02:17.687Z,85.27
2023-02-09T00:04:44.645Z,90.67
2023-02-09T00:07:11.552Z,86.93
2023-02-09T00:09:38.537Z,88.77
2023-02-09T00:12:24.202Z,96.53
2023-02-09T00:14:51.220Z,91.50
2023-02-09T00:17:21.112Z,82.10
2023-02-09T00:19:50.097Z,97.47
2023-02-09T00:22:21.821Z,86.77
2023-02-09T00:24:50.822Z,92.50
2023-02-09T00:27:20.013Z,96.90
2023-02-09T00:29:49.140Z,89.17
2023-02-09T00:32:16.045Z,82.93
2023-02-09T00:34:45.492Z,103.47
2023-02-09T00:37:12.382Z,83.50
2023-02-09T00:39:39.257Z,106.67
2023-02-09T00:42:06.196Z,93.30
2023-02-09T00:44:41.673Z,89.83
2023-02-09T00:47:14.255Z,95.90
2023-02-09T00:49:41.201Z,86.80
2023-02-09T00:52:09.923Z,89.33
2023-02-09T00:54:37.577Z,87.77
2023-02-09T00:57:05.403Z,91.97
2023-02-09T00:59:36.108Z,85.33
2023-02-09T01:02:06.534Z,95.90
2023-02-09T01:04:33.812Z,101.40
2023-02-09T01:07:05.790Z,85.50
2023-02-09T01:09:32.892Z,97.53
2023-02-09T01:11:59.906Z,90.07
2023-02-09T01:14:29.487Z,92.40
2023-02-09T01:16:58.800Z,97.07
2023-02-09T01:19:26.851Z,90.80
2023-02-09T01:21:53.779Z,90.80
2023-02-09T01:24:20.763Z,92.27
2023-02-09T01:26:50.006Z,116.17
2023-02-09T01:29:19.346Z,87.57
2023-02-09T01:31:47.494Z,94.90
2023-02-09T01:34:17.669Z,105.10
2023-02-09T01:36:48.336Z,99.67
2023-02-09T01:39:15.813Z,102.43
2023-02-09T01:41:46.282Z,89.40
2023-02-09T01:44:15.756Z,99.13
2023-02-09T01:46:46.808Z,106.37
2023-02-09T01:49:18.527Z,86.20
2023-02-09T01:51:53.857Z,95.10
2023-02-09T01:54:27.612Z,95.60
2023-02-09T01:57:04.373Z,91.37
2023-02-09T01:59:34.841Z,94.37
2023-02-09T02:02:06.562Z,94.63
2023-02-09T02:04:34.792Z,88.23
2023-02-09T02:07:26.860Z,90.20
2023-02-09T02:09:54.729Z,88.70
2023-02-09T02:12:22.676Z,101.17
2023-02-09T02:14:49.584Z,94.00
2023-02-09T02:17:55.361Z,101.30
2023-02-09T02:21:08.190Z,90.43
2023-02-09T02:23:44.439Z,88.80
2023-02-09T02:26:43.999Z,91.23
2023-02-09T02:29:45.878Z,87.07
2023-02-09T02:33:00.236Z,90.33
2023-02-09T02:36:05.879Z,92.50
2023-02-09T02:38:41.275Z,92.00
2023-02-09T02:41:51.639Z,97.17
2023-02-09T02:44:21.221Z,85.23
2023-02-09T02:47:03.472Z,86.97
2023-02-09T02:49:52.113Z,85.93
2023-02-09T02:52:19.235Z,85.33
2023-02-09T02:54:53.122Z,93.10
2023-02-09T02:57:27.391Z,88.93
2023-02-09T03:00:02.060Z,90.17
2023-02-09T03:02:40.230Z,84.73
2023-02-09T03:05:08.647Z,86.00
2023-02-09T03:07:35.728Z,84.87
2023-02-09T03:10:23.868Z,79.63
2023-02-09T03:13:21.273Z,83.87
2023-02-09T03:16:32.514Z,79.57
2023-02-09T03:19:19.016Z,77.67
2023-02-09T03:21:59.192Z,81.30
2023-02-09T03:24:34.802Z,91.40
2023-02-09T03:27:21.982Z,84.23
2023-02-09T03:29:55.124Z,75.73
2023-02-09T03:32:23.581Z,75.07
2023-02-09T03:34:52.557Z,84.27
2023-02-09T03:37:25.409Z,82.10
2023-02-09T03:39:52.316Z,84.40
2023-02-09T03:42:22.207Z,72.43
2023-02-09T03:44:49.135Z,71.90
2023-02-09T03:47:16.082Z,73.47
2023-02-09T03:49:45.467Z,74.00
2023-02-09T03:52:16.187Z,73.13
2023-02-09T03:54:47.807Z,76.07
2023-02-09T03:57:14.878Z,79.90
2023-02-09T03:59:42.059Z,71.03
2023-02-09T04:02:13.153Z,72.83
2023-02-09T04:04:40.217Z,72.63
2023-02-09T04:07:09.521Z,62.90
2023-02-09T04:09:38.817Z,65.13
2023-02-09T04:12:09.347Z,76.20
2023-02-09T04:14:38.543Z,69.30
2023-02-09T04:17:05.702Z,69.60
2023-02-09T04:19:35.024Z,60.20
2023-02-09T04:22:02.287Z,66.87
2023-02-09T04:24:31.865Z,66.83
2023-02-09T04:26:58.801Z,60.53
2023-02-09T04:29:26.377Z,62.67
2023-02-09T04:31:58.094Z,58.95
2023-02-09T04:34:25.198Z,59.95
2023-02-09T04:36:52.353Z,63.47
2023-02-09T04:39:21.867Z,68.50
2023-02-09T04:41:48.820Z,63.73
2023-02-09T04:44:15.905Z,61.20
2023-02-09T04:46:45.412Z,57.77
2023-02-09T04:49:12.876Z,61.30
2023-02-09T04:51:42.505Z,66.87
2023-02-09T04:54:11.924Z,55.37
2023-02-09T04:56:39.068Z,58.73
2023-02-09T04:59:27.253Z,51.83
2023-02-09T05:01:54.371Z,52.03
2023-02-09T05:04:21.450Z,51.97
2023-02-09T05:06:48.467Z,58.63
2023-02-09T05:09:15.509Z,49.17
2023-02-09T05:11:45.052Z,54.53
2023-02-09T05:14:14.210Z,52.80
2023-02-09T05:16:41.359Z,47.10
2023-02-09T05:19:10.784Z,54.10
2023-02-09T05:21:37.830Z,51.03
2023-02-09T05:24:07.489Z,52.33
2023-02-09T05:26:36.656Z,47.83
2023-02-09T05:29:04.446Z,46.20
2023-02-09T05:31:33.878Z,44.70
2023-02-09T05:34:07.190Z,59.53
2023-02-09T05:36:34.162Z,44.80
2023-02-09T05:39:01.001Z,45.40
2023-02-09T05:41:46.560Z,52.40
2023-02-09T05:44:13.545Z,48.40
2023-02-09T05:46:42.545Z,48.93
2023-02-09T05:49:09.433Z,44.27
2023-02-09T05:51:36.324Z,45.07
2023-02-09T05:54:03.512Z,46.50
2023-02-09T05:56:30.575Z,39.30
2023-02-09T05:58:59.958Z,50.80
2023-02-09T06:01:26.844Z,51.13
2023-02-09T06:03:53.815Z,38.57
2023-02-09T06:06:25.303Z,36.50
2023-02-09T06:08:52.471Z,38.80
2023-02-09T06:11:21.661Z,43.10
2023-02-09T06:13:51.079Z,43.60
2023-02-09T06:16:22.572Z,41.30
2023-02-09T06:18:49.469Z,36.80
2023-02-09T06:21:18.997Z,33.03
2023-02-09T06:23:46.027Z,34.27
2023-02-09T06:26:15.565Z,38.33
2023-02-09T06:28:45.069Z,43.00
2023-02-09T06:31:12.673Z,36.90
2023-02-09T06:33:40.218Z,33.50
2023-02-09T06:36:08.800Z,35.07
2023-02-09T06:38:38.262Z,36.27
2023-02-09T06:41:06.040Z,38.47
2023-02-09T06:43:33.210Z,45.10
2023-02-09T06:46:09.381Z,33.23
2023-02-09T06:48:38.185Z,37.87
2023-02-09T06:51:16.562Z,33.90
2023-02-09T06:53:44.072Z,35.40
2023-02-09T06:56:12.368Z,40.10
2023-02-09T06:58:41.043Z,44.73
2023-02-09T07:01:17.086Z,37.43
2023-02-09T07:03:44.505Z,32.37
2023-02-09T07:06:18.021Z,31.37
2023-02-09T07:08:49.464Z,37.73
2023-02-09T07:11:18.314Z,32.30
2023-02-09T07:13:48.279Z,31.57
2023-02-09T07:16:15.392Z,29.87
2023-02-09T07:18:46.976Z,33.10
2023-02-09T07:21:19.909Z,39.63
2023-02-09T07:23:48.837Z,26.53
2023-02-09T07:26:18.058Z,29.90
2023-02-09T07:28:45.848Z,30.73
2023-02-09T07:31:17.025Z,32.73
2023-02-09T07:33:45.050Z,28.83
2023-02-09T07:36:15.518Z,36.10
2023-02-09T07:38:43.042Z,29.73
2023-02-09T07:41:20.668Z,31.03
2023-02-09T07:43:50.734Z,28.83
2023-02-09T07:46:23.367Z,28.80
2023-02-09T07:48:50.340Z,32.30
2023-02-09T07:51:25.526Z,30.60
2023-02-09T07:54:02.725Z,29.73
2023-02-09T07:56:29.829Z,31.23
2023-02-09T07:58:57.753Z,36.43
2023-02-09T08:01:25.667Z,28.17
2023-02-09T08:03:52.718Z,27.87
2023-02-09T08:06:41.014Z,27.13
2023-02-09T08:09:10.073Z,25.80
2023-02-09T08:11:44.643Z,31.90
2023-02-09T08:14:23.995Z,28.90
2023-02-09T08:17:13.294Z,27.33
2023-02-09T08:19:40.348Z,29.03
2023-02-09T08:22:09.778Z,24.10
2023-02-09T08:24:41.513Z,29.47
2023-02-09T08:27:08.671Z,24.03
2023-02-09T08:29:37.665Z,28.00
2023-02-09T08:32:05.013Z,26.47
2023-02-09T08:34:31.873Z,26.50
2023-02-09T08:36:58.950Z,30.40
2023-02-09T08:39:29.646Z,26.97
2023-02-09T08:41:56.559Z,26.43
2023-02-09T08:44:23.495Z,28.73
2023-02-09T08:46:50.482Z,28.87
2023-02-09T08:49:17.540Z,21.93
2023-02-09T08:51:44.515Z,21.83
2023-02-09T08:54:11.430Z,28.77
2023-02-09T08:56:38.365Z,30.93
2023-02-09T08:59:05.551Z,23.30
2023-02-09T09:01:32.656Z,26.97
2023-02-09T09:03:59.562Z,25.30
2023-02-09T09:06:28.615Z,20.73
2023-02-09T09:08:57.560Z,19.57
2023-02-09T09:11:24.500Z,19.43
2023-02-09T09:13:51.361Z,19.93
2023-02-09T09:16:21.619Z,22.77
2023-02-09T09:18:51.867Z,19.87
2023-02-09T09:21:21.752Z,22.93
2023-02-09T09:23:48.860Z,22.07
2023-02-09T09:26:19.286Z,24.03
2023-02-09T09:28:51.233Z,29.83
2023-02-09T09:31:19.711Z,21.90
2023-02-09T09:33:49.201Z,21.90
2023-02-09T09:36:16.171Z,21.00
2023-02-09T09:38:43.358Z,22.10
2023-02-09T09:41:32.516Z,23.20
2023-02-09T09:44:01.930Z,20.63
2023-02-09T09:46:37.531Z,19.57
2023-02-09T09:49:07.802Z,21.27
2023-02-09T09:51:41.060Z,22.90
2023-02-09T09:54:19.545Z,24.47
2023-02-09T09:56:47.962Z,22.13
2023-02-09T09:59:25.059Z,21.37
2023-02-09T10:01:54.166Z,26.13
2023-02-09T10:04:21.368Z,22.07
2023-02-09T10:06:59.590Z,21.70
2023-02-09T10:09:35.162Z,23.50
2023-02-09T10:12:35.838Z,17.73
2023-02-09T10:15:32.160Z,25.47
2023-02-09T10:18:02.315Z,18.33
2023-02-09T10:20:56.729Z,20.37
2023-02-09T10:23:43.322Z,19.80
2023-02-09T10:26:10.720Z,23.57
2023-02-09T10:28:44.996Z,23.60
2023-02-09T10:31:34.159Z,24.07
2023-02-09T10:34:15.860Z,18.67
2023-02-09T10:36:54.410Z,27.03
2023-02-09T10:39:31.434Z,24.90
2023-02-09T10:42:16.355Z,21.50
2023-02-09T10:44:58.153Z,18.07
2023-02-09T10:47:30.813Z,25.43
2023-02-09T10:50:13.893Z,26.23
2023-02-09T10:53:19.354Z,22.53
2023-02-09T10:55:49.504Z,20.13
2023-02-09T10:58:29.569Z,20.03
2023-02-09T11:01:11.259Z,20.00
2023-02-09T11:04:20.025Z,21.40
2023-02-09T11:07:11.687Z,16.60
2023-02-09T11:09:46.870Z,20.90
2023-02-09T11:12:14.409Z,20.50
2023-02-09T11:14:43.199Z,18.20
2023-02-09T11:17:21.835Z,17.73
2023-02-09T11:20:00.437Z,22.53
2023-02-09T11:22:51.487Z,24.17
2023-02-09T11:25:41.632Z,19.10
2023-02-09T11:29:08.516Z,20.30
2023-02-09T11:32:19.879Z,19.33
2023-02-09T11:35:01.861Z,18.50
2023-02-09T11:37:56.481Z,19.50
2023-02-09T11:40:26.140Z,21.37
2023-02-09T11:43:12.268Z,22.47
2023-02-09T11:46:03.659Z,18.03
2023-02-09T11:48:44.771Z,26.00
2023-02-09T11:51:23.542Z,19.70
2023-02-09T11:54:22.764Z,22.37
2023-02-09T11:56:53.331Z,17.33
2023-02-09T11:59:38.061Z,22.80
2023-02-09T12:02:46.115Z,19.37
2023-02-09T12:05:21.268Z,16.67
2023-02-09T12:08:21.599Z,27.97
2023-02-09T12:11:15.156Z,18.77
2023-02-09T12:14:09.645Z,27.80
2023-02-09T12:16:48.169Z,19.50
2023-02-09T12:19:37.882Z,18.10
2023-02-09T12:22:35.620Z,22.07
2023-02-09T12:25:42.566Z,23.30
2023-02-09T12:28:09.702Z,16.00
2023-02-09T12:30:42.808Z,31.13
2023-02-09T12:33:25.267Z,14.43
2023-02-09T12:36:04.115Z,20.03
2023-02-09T12:38:56.840Z,18.70
2023-02-09T12:41:40.996Z,15.47
2023-02-09T12:44:13.872Z,22.00
2023-02-09T12:46:52.868Z,19.10
2023-02-09T12:49:41.590Z,15.57
2023-02-09T12:52:17.381Z,20.67
2023-02-09T12:54:54.140Z,16.20
2023-02-09T12:57:25.408Z,16.10
2023-02-09T13:00:03.762Z,20.13
2023-02-09T13:02:57.676Z,19.93
2023-02-09T13:05:39.137Z,17.87
2023-02-09T13:08:13.193Z,22.40
2023-02-09T13:10:54.951Z,20.73
2023-02-09T13:13:45.140Z,15.93
2023-02-09T13:16:24.106Z,17.23
2023-02-09T13:19:12.689Z,32.17
2023-02-09T13:22:19.909Z,37.80
2023-02-09T13:25:07.708Z,20.60
2023-02-09T13:27:49.493Z,31.00
2023-02-09T13:30:34.600Z,16.00
2023-02-09T13:33:23.522Z,21.90
2023-02-09T13:36:25.813Z,26.03
2023-02-09T13:38:55.918Z,11.80
2023-02-09T13:41:38.977Z,18.77
2023-02-09T13:44:32.195Z,17.20
2023-02-09T13:47:02.171Z,18.27
2023-02-09T13:49:30.536Z,19.00
2023-02-09T13:52:20.565Z,16.60
2023-02-09T13:54:50.302Z,17.30
2023-02-09T13:57:37.709Z,20.80
2023-02-09T14:00:36.030Z,13.77
2023-02-09T14:03:12.487Z,19.50
2023-02-09T14:06:13.947Z,18.13
2023-02-09T14:08:41.704Z,25.40
2023-02-09T14:11:42.235Z,17.30
2023-02-09T14:14:18.416Z,32.93
2023-02-09T14:16:53.551Z,15.93
2023-02-09T14:19:32.527Z,19.73
2023-02-09T14:22:02.693Z,21.63
2023-02-09T14:24:43.759Z,13.17
2023-02-09T14:27:23.955Z,26.67
2023-02-09T14:29:51.119Z,19.47
2023-02-09T14:32:32.347Z,15.47
2023-02-09T14:35:09.567Z,23.80
2023-02-09T14:37:37.787Z,17.83
2023-02-09T14:40:07.596Z,14.20
2023-02-09T14:42:39.620Z,20.37
2023-02-09T14:45:15.888Z,16.57
2023-02-09T14:47:45.785Z,19.20
2023-02-09T14:50:18.131Z,18.70
2023-02-09T14:52:48.199Z,21.10
2023-02-09T14:55:28.537Z,21.10
2023-02-09T14:58:00.168Z,21.17
2023-02-09T15:00:29.075Z,28.33
2023-02-09T15:02:58.578Z,16.53
2023-02-09T15:05:27.018Z,22.30
2023-02-09T15:08:04.250Z,19.70
2023-02-09T15:10:38.608Z,18.30
2023-02-09T15:13:06.021Z,17.13
2023-02-09T15:15:37.567Z,19.13
2023-02-09T15:18:07.267Z,19.63
2023-02-09T15:20:34.799Z,16.07
2023-02-09T15:23:01.759Z,16.20
2023-02-09T15:25:32.179Z,14.97
2023-02-09T15:28:01.028Z,21.43
2023-02-09T15:30:33.652Z,16.40
2023-02-09T15:33:01.092Z,19.83
2023-02-09T15:35:30.344Z,17.47
2023-02-09T15:38:01.915Z,16.50
2023-02-09T15:41:01.606Z,22.60
2023-02-09T15:43:50.266Z,21.97
2023-02-09T15:46:36.036Z,18.93
2023-02-09T15:49:05.545Z,24.93
2023-02-09T15:51:36.624Z,16.33
2023-02-09T15:54:11.204Z,21.77
2023-02-09T15:56:38.794Z,18.20
2023-02-09T15:59:06.391Z,27.30
2023-02-09T16:01:34.634Z,16.97
2023-02-09T16:04:13.389Z,18.03
2023-02-09T16:06:54.385Z,25.33
2023-02-09T16:09:27.900Z,19.50
2023-02-09T16:11:54.857Z,24.60
2023-02-09T16:14:27.611Z,17.00
2023-02-09T16:16:54.566Z,17.97
2023-02-09T16:19:27.330Z,23.30
2023-02-09T16:21:58.583Z,19.57
2023-02-09T16:24:34.295Z,20.53
2023-02-09T16:27:14.917Z,25.40
2023-02-09T16:29:42.250Z,29.03
2023-02-09T16:32:18.994Z,17.93
2023-02-09T16:34:46.227Z,17.93
2023-02-09T16:37:27.922Z,21.70
2023-02-09T16:39:58.045Z,21.60
2023-02-09T16:42:29.422Z,25.60
2023-02-09T16:45:00.245Z,22.90
2023-02-09T16:47:31.675Z,27.93
2023-02-09T16:50:03.339Z,19.73
2023-02-09T16:52:32.898Z,20.93
2023-02-09T16:55:05.591Z,23.60
2023-02-09T16:57:35.143Z,23.53
2023-02-09T17:00:05.593Z,17.60
2023-02-09T17:02:38.044Z,20.90
2023-02-09T17:05:19.452Z,18.37
2023-02-09T17:07:55.178Z,21.07
2023-02-09T17:10:28.486Z,23.57
2023-02-09T17:12:55.831Z,18.97
2023-02-09T17:15:31.065Z,21.60
2023-02-09T17:18:04.604Z,19.97
2023-02-09T17:20:41.332Z,21.23
2023-02-09T17:23:17.591Z,23.00
2023-02-09T17:25:45.563Z,17.23
2023-02-09T17:28:13.324Z,22.47
2023-02-09T17:30:44.791Z,25.37
2023-02-09T17:33:23.906Z,23.37
2023-02-09T17:36:25.274Z,22.77
2023-02-09T17:38:44.847Z,23.83
2023-02-09T17:41:28.445Z,22.87
2023-02-09T17:44:13.909Z,27.40
2023-02-09T17:46:47.441Z,24.87
2023-02-09T17:49:16.946Z,20.70
2023-02-09T17:51:46.257Z,21.37
2023-02-09T17:54:21.032Z,27.63
2023-02-09T17:56:47.993Z,24.67
2023-02-09T17:59:20.369Z,21.33
2023-02-09T18:01:55.112Z,23.30
2023-02-09T18:04:28.731Z,29.53
2023-02-09T18:06:58.273Z,24.37
2023-02-09T18:09:25.292Z,29.03
2023-02-09T18:11:52.294Z,20.57
2023-02-09T18:14:22.213Z,22.70
2023-02-09T18:16:50.480Z,24.67
2023-02-09T18:19:19.716Z,23.43
2023-02-09T18:21:54.213Z,26.77
2023-02-09T18:24:23.488Z,34.77
2023-02-09T18:26:51.190Z,32.80
2023-02-09T18:29:23.645Z,25.50
2023-02-09T18:31:53.310Z,28.17
2023-02-09T18:34:20.377Z,24.47
2023-02-09T18:36:47.293Z,25.53
2023-02-09T18:39:19.790Z,26.17
2023-02-09T18:41:54.349Z,26.40
2023-02-09T18:44:29.058Z,27.80
2023-02-09T18:47:02.728Z,31.83
2023-02-09T18:49:29.946Z,26.77
2023-02-09T18:51:59.429Z,24.53
2023-02-09T18:54:29.940Z,24.93
2023-02-09T18:56:57.228Z,27.70
2023-02-09T18:59:33.392Z,33.37
2023-02-09T19:02:00.764Z,31.17
2023-02-09T19:04:29.979Z,30.93
2023-02-09T19:06:57.037Z,49.43
2023-02-09T19:09:24.138Z,34.70
2023-02-09T19:11:53.331Z,29.70
2023-02-09T19:14:40.694Z,37.17
2023-02-09T19:17:14.627Z,37.63
2023-02-09T19:19:42.155Z,39.73
2023-02-09T19:22:12.063Z,36.90
2023-02-09T19:24:41.523Z,54.20
2023-02-09T19:27:11.314Z,37.50
2023-02-09T19:29:42.657Z,40.53
2023-02-09T19:32:12.466Z,37.53
2023-02-09T19:34:43.143Z,37.13
2023-02-09T19:37:13.108Z,39.37
2023-02-09T19:39:52.158Z,38.80
2023-02-09T19:42:22.838Z,40.10
2023-02-09T19:44:52.267Z,44.37
2023-02-09T19:47:25.601Z,40.10
2023-02-09T19:50:00.745Z,35.53
2023-02-09T19:52:28.682Z,34.40
2023-02-09T19:54:57.658Z,34.30
2023-02-09T19:57:27.112Z,37.03
2023-02-09T19:59:55.805Z,44.33
2023-02-09T20:02:24.586Z,33.97
2023-02-09T20:04:52.672Z,37.30
2023-02-09T20:07:19.737Z,35.20
2023-02-09T20:09:54.241Z,39.97
2023-02-09T20:12:24.104Z,31.47
2023-02-09T20:14:54.324Z,36.63
2023-02-09T20:17:23.538Z,39.30
2023-02-09T20:19:54.812Z,42.10
2023-02-09T20:22:23.603Z,39.13
2023-02-09T20:24:51.282Z,40.57
2023-02-09T20:27:19.422Z,40.03
2023-02-09T20:29:46.799Z,38.70
2023-02-09T20:32:15.130Z,37.07
2023-02-09T20:34:42.664Z,39.07
2023-02-09T20:37:16.344Z,40.90
2023-02-09T20:39:45.948Z,41.87
2023-02-09T20:42:31.949Z,43.23
2023-02-09T20:45:19.689Z,42.30
2023-02-09T20:47:46.630Z,47.10
2023-02-09T20:50:17.846Z,44.70
2023-02-09T20:52:47.086Z,49.63
2023-02-09T20:55:14.268Z,50.83
2023-02-09T20:57:41.312Z,47.33
2023-02-09T21:00:09.921Z,44.30
2023-02-09T21:02:38.804Z,49.00
2023-02-09T21:05:06.122Z,45.67
2023-02-09T21:07:36.072Z,40.53
2023-02-09T21:10:03.275Z,38.90
2023-02-09T21:12:30.199Z,45.83
2023-02-09T21:14:58.705Z,44.17
2023-02-09T21:17:25.631Z,46.47
2023-02-09T21:19:52.560Z,47.33
2023-02-09T21:22:22.040Z,38.00
2023-02-09T21:24:51.852Z,49.83
2023-02-09T21:27:21.070Z,42.07
2023-02-09T21:29:50.309Z,47.30
2023-02-09T21:32:18.332Z,52.40
2023-02-09T21:34:45.548Z,50.87
2023-02-09T21:37:15.468Z,57.70
2023-02-09T21:39:42.501Z,61.03
2023-02-09T21:42:31.478Z,49.83
2023-02-09T21:45:01.733Z,51.23
2023-02-09T21:47:38.539Z,56.90
2023-02-09T21:50:08.574Z,64.70
2023-02-09T21:52:35.771Z,51.10
2023-02-09T21:55:03.664Z,50.50
2023-02-09T21:57:30.779Z,59.13
2023-02-09T21:59:59.027Z,65.73
2023-02-09T22:02:27.404Z,62.40
2023-02-09T22:04:56.533Z,65.03
2023-02-09T22:07:23.508Z,52.63
2023-02-09T22:09:52.866Z,67.40
2023-02-09T22:12:24.694Z,58.47
2023-02-09T22:14:51.583Z,66.63
2023-02-09T22:17:21.496Z,56.90
2023-02-09T22:19:48.444Z,51.97
2023-02-09T22:22:15.327Z,64.80
2023-02-09T22:24:49.728Z,66.33
2023-02-09T22:27:16.672Z,60.03
2023-02-09T22:29:44.291Z,63.00
2023-02-09T22:32:13.460Z,61.07
2023-02-09T22:34:40.417Z,59.73
2023-02-09T22:37:07.366Z,67.10
2023-02-09T22:39:34.281Z,65.37
2023-02-09T22:42:01.253Z,78.63
2023-02-09T22:44:29.967Z,62.27
2023-02-09T22:46:57.275Z,65.00
2023-02-09T22:49:26.760Z,68.30
2023-02-09T22:51:56.142Z,62.37
2023-02-09T22:54:23.011Z,61.33
2023-02-09T22:56:49.918Z,57.30
2023-02-09T22:59:16.946Z,59.60
2023-02-09T23:01:44.815Z,60.50
2023-02-09T23:04:16.537Z,63.03
2023-02-09T23:06:46.532Z,59.00
2023-02-09T23:09:20.759Z,63.27
2023-02-09T23:11:49.764Z,64.93
2023-02-09T23:14:17.122Z,59.90
2023-02-09T23:16:45.566Z,78.97
2023-02-09T23:19:18.406Z,59.07
2023-02-09T23:21:49.130Z,56.70
2023-02-09T23:24:21.689Z,62.50
2023-02-09T23:26:51.852Z,61.43
2023-02-09T23:29:19.246Z,78.53
2023-02-09T23:31:47.366Z,59.27
2023-02-09T23:34:23.806Z,57.83
2023-02-09T23:36:51.225Z,63.57
2023-02-09T23:39:22.449Z,83.80
2023-02-09T23:41:52.166Z,72.33
2023-02-09T23:44:23.643Z,72.70
2023-02-09T23:46:50.552Z,74.20
2023-02-09T23:49:17.453Z,68.97
2023-02-09T23:51:45.958Z,80.53
2023-02-09T23:54:13.007Z,68.87
2023-02-09T23:56:40.078Z,73.23
2023-02-09T23:59:13.026Z,73.50
